Skip to Main Content
SEARCH:
Location Air RH Dwp Precip Type Wind Speed Wind Gust Direction Pavement Temperature Date/Time
Hatem Bridge US 40 E/B 47 75 40 None 7 mph 10 mph SE 60 - 60 2/27/2017 1:06:00 PM
I-270 at I-370 53 29 22 None Calm 7 mph SW 58 - 63 2/27/2017 1:05:00 PM
I-270 at MD-109 54 30 23 None 4 mph 8 mph SE 61 - 64 2/27/2017 1:05:00 PM
I-495 at American Legion Bridge 54 32 25 None 6 mph 13 mph SE 58 - 61 2/27/2017 1:05:00 PM
I-68 at MD-219 40 73 32 None 6 mph 12 mph SW 45 - 49 2/27/2017 1:05:00 PM
I-68 at Savage Mt - - - No Data Available - - No Data Available -
I-68 at Sideling Hill 45 46 26 None Calm 4 mph NE 54 - 55 2/27/2017 1:05:00 PM
I-68 at WV Line 42 68 32 Rain 9 mph 21 mph S 48 - 51 2/27/2017 1:05:00 PM
I-695 at I-83 54 35 27 None Calm 8 mph SW 58 - 65 2/27/2017 1:05:00 PM
I-70 at Fred-Wash Co. 45 43 24 None 6 mph 11 mph E 56 - 56 2/27/2017 1:05:00 PM
I-70 at I-695 56 33 27 None 5 mph 12 mph S 55 - 71 2/27/2017 1:05:00 PM
I-70 at I-81 49 36 24 None 7 mph 11 mph S 60 - 60 2/27/2017 1:05:00 PM
I-70 at MD-27 51 33 24 None 4 mph 10 mph W 62 - 66 2/27/2017 1:05:00 PM
I-70 at MD-32 53 31 23 None 6 mph 14 mph SW 61 - 70 2/27/2017 1:05:00 PM
I-83 at MD-137 53 31 23 None Calm 8 mph S 71 - 71 2/27/2017 1:05:00 PM
I-895 at I-95 - - - No Data Available - - No Data Available -
I-95 at I-695 NE 52 40 29 None 4 mph 6 mph SW 60 - 68 2/27/2017 1:06:00 PM
I-95 at Patuxent River 54 29 22 None 7 mph 13 mph W 61 - 64 2/27/2017 1:05:00 PM
I-95 at Tydings Bridge 52 48 33 None 5 mph 14 mph SE 61 - 65 2/27/2017 1:05:00 PM
I-95/495 at I-295 53 41 30 None 7 mph 13 mph SW 55 - 57 2/27/2017 1:05:00 PM
I-97 at MD-100 55 28 23 None 9 mph 16 mph SW 62 - 68 2/27/2017 1:05:00 PM
I-97 at MD-32 54 28 22 None 5 mph 8 mph SW 58 - 66 2/27/2017 1:05:00 PM
MD 20 at MD 21 51 44 30 None 8 mph 13 mph S 66 - 66 2/27/2017 1:05:00 PM
MD 231 at Patuxent River 54 36 28 None 6 mph 11 mph SW 62 - 67 2/27/2017 1:05:00 PM
MD 260 at Cox Rd 47 72 39 None Calm 5 mph E 64 - 64 2/27/2017 1:05:00 PM
MD-135 at Salt Dome 39 80 34 None 10 mph 17 mph W 52 - 52 2/27/2017 1:05:00 PM
MD-140 at MD-97 53 32 25 None 7 mph 14 mph W 67 - 67 2/27/2017 1:05:00 PM
MD-200 EB at Bonifant Rd 52 32 23 None Calm 4 mph SW 60 - 60 2/27/2017 1:06:00 PM
MD-200 WB at Muncaster Mill Rd 53 30 22 None 4 mph 12 mph S 61 - 64 2/27/2017 1:06:00 PM
MD-213 at Sassafras River 54 36 28 None 12 mph 18 mph SW 68 - 68 2/27/2017 1:05:00 PM
MD-24 at Rock St Park 53 36 27 None Calm 7 mph E 61 - 61 2/27/2017 1:05:00 PM
MD-30 at PA Line 50 35 24 None 7 mph 19 mph S 66 - 66 2/27/2017 1:05:00 PM
MD-301 at MD-305 52 38 27 None 11 mph 17 mph SW 66 - 66 2/27/2017 1:05:00 PM
MD-33 at Knapps Narrows Drawbridge 49 60 36 None 4 mph 10 mph S 69 - 69 2/27/2017 1:05:00 PM
MD-344 at MD-224 55 35 28 None Calm 4 mph S 69 - 69 2/27/2017 1:05:00 PM
MD-4 at Patuxent River 53 43 32 None - - No Data Available 62 - 66 2/27/2017 1:05:00 PM
MD-404 at Choptank River 54 39 30 None 7 mph 12 mph SW 66 - 71 2/27/2017 1:05:00 PM
MD-43 at MD-150 50 64 38 None 7 mph 12 mph SE 63 - 70 2/27/2017 1:05:00 PM
MD-51 at Oldtown Salt Dome 48 45 27 None Calm Calm E 54 - 54 2/27/2017 1:05:00 PM
MD-64 at MD-418 - - - No Data Available - - No Data Available -
US-1 at Baltimore / Harford Co. Line 52 41 29 None 5 mph 12 mph S 64 - 64 2/27/2017 1:05:00 PM
US-1 at Conowingo Dam 52 42 29 None 8 mph 13 mph S 68 - 68 2/27/2017 1:05:00 PM
US-13 at US-113 56 41 33 None 8 mph 12 mph S 79 - 80 2/27/2017 1:05:00 PM
US-13 at US-50 - - - No Data Available - - No Data Available -
US-15 at MD-140 49 37 24 None 7 mph 12 mph S 55 - 61 2/27/2017 1:05:00 PM
US-301 at MD-5 52 35 25 None 8 mph 19 mph S 60 - 63 2/27/2017 1:05:00 PM
US-301 at Potomac 53 46 33 None 6 mph 11 mph S 62 - 64 2/27/2017 1:05:00 PM
US-301 on HWN Bridge 50 38 26 None 10 mph 11 mph SE 56 - 56 2/27/2017 1:06:00 PM
US-340 at MD-180 51 39 27 None 4 mph 10 mph SE 62 - 65 2/27/2017 1:05:00 PM
US-50 at Choptank 51 65 40 None 7 mph 11 mph S 60 - 64 2/27/2017 1:05:00 PM
US-50 at I-95 54 30 24 None 4 mph 11 mph SW 58 - 62 2/27/2017 1:05:00 PM
US-50 at MD-2 52 50 34 None Calm 7 mph SE 58 - 65 2/27/2017 1:05:00 PM
US-50 at MD-331 53 47 33 None 14 mph 22 mph SW 67 - 71 2/27/2017 1:05:00 PM
US-50 at OC Drawbridge 51 63 39 None Calm 11 mph SW 76 - 76 2/27/2017 1:05:00 PM
US-50 at Table Rock Rd 37 89 35 None 4 mph 12 mph W 50 - 50 2/27/2017 1:05:00 PM
US-50 Kent Narrow Bridge 50 56 36 None 7 mph 12 mph S 60 - 64 2/27/2017 1:05:00 PM
WPL Pier 31 47 55 32 None Calm 4 mph E 59 - 59 2/27/2017 1:06:00 PM
Location Air RH Dwp Precip Type Wind Speed Wind Gust Direction Pavement Temperature Date/Time